createdAt,value
2022-08-05T00:02:27.746Z,3.22
2022-08-05T00:04:56.198Z,3.53
2022-08-05T00:07:59.643Z,2.67
2022-08-05T00:10:11.046Z,3.17
2022-08-05T00:12:56.112Z,2.92
2022-08-05T00:15:55.016Z,3.45
2022-08-05T00:18:21.435Z,2.90
2022-08-05T00:20:50.356Z,2.78
2022-08-05T00:23:17.784Z,2.55
2022-08-05T00:26:04.859Z,3.05
2022-08-05T00:28:31.790Z,2.90
2022-08-05T00:31:04.082Z,2.90
2022-08-05T00:34:56.408Z,2.92
2022-08-05T00:37:13.075Z,3.00
2022-08-05T00:39:05.725Z,2.58
2022-08-05T00:41:51.578Z,2.55
2022-08-05T00:44:19.296Z,2.60
2022-08-05T00:46:47.758Z,2.47
2022-08-05T00:49:21.177Z,2.85
2022-08-05T00:51:50.396Z,2.90
2022-08-05T00:54:18.870Z,3.33
2022-08-05T00:56:51.533Z,2.45
2022-08-05T00:59:18.766Z,2.75
2022-08-05T01:01:49.001Z,2.63
2022-08-05T01:04:20.370Z,3.17
2022-08-05T01:06:53.947Z,3.53
2022-08-05T01:09:22.706Z,3.08
2022-08-05T01:11:51.823Z,3.35
2022-08-05T01:14:29.047Z,3.13
2022-08-05T01:17:08.942Z,3.10
2022-08-05T01:20:00.913Z,3.22
2022-08-05T01:22:57.664Z,3.08
2022-08-05T01:26:02.626Z,3.40
2022-08-05T01:29:04.279Z,3.30
2022-08-05T01:31:45.397Z,3.35
2022-08-05T01:34:21.075Z,2.80
2022-08-05T01:36:54.934Z,4.20
2022-08-05T01:39:46.165Z,3.65
2022-08-05T01:42:13.733Z,3.13
2022-08-05T01:44:44.200Z,2.90
2022-08-05T01:47:22.288Z,2.97
2022-08-05T01:50:02.007Z,3.35
2022-08-05T01:52:31.665Z,2.67
2022-08-05T01:55:04.338Z,2.67
2022-08-05T01:58:18.882Z,3.35
2022-08-05T02:00:21.559Z,2.47
2022-08-05T02:03:34.057Z,3.03
2022-08-05T02:06:03.735Z,3.53
2022-08-05T02:08:58.563Z,3.22
2022-08-05T02:11:33.080Z,3.20
2022-08-05T02:14:12.631Z,3.00
2022-08-05T02:16:52.183Z,3.42
2022-08-05T02:19:34.396Z,2.53
2022-08-05T02:22:28.243Z,3.13
2022-08-05T02:25:17.034Z,3.13
2022-08-05T02:27:59.428Z,2.88
2022-08-05T02:30:32.510Z,2.63
2022-08-05T02:33:03.762Z,3.10
2022-08-05T02:35:38.615Z,3.72
2022-08-05T02:38:12.544Z,2.75
2022-08-05T02:40:46.965Z,3.17
2022-08-05T02:43:15.585Z,3.28
2022-08-05T02:45:52.658Z,2.97
2022-08-05T02:48:29.022Z,3.17
2022-08-05T02:51:01.088Z,3.00
2022-08-05T02:53:39.610Z,3.05
2022-08-05T02:56:15.959Z,3.20
2022-08-05T02:58:51.590Z,2.92
2022-08-05T03:01:24.011Z,3.35
2022-08-05T03:04:02.666Z,3.40
2022-08-05T03:06:54.061Z,3.58
2022-08-05T03:09:36.404Z,3.20
2022-08-05T03:12:05.474Z,3.90
2022-08-05T03:14:32.314Z,2.95
2022-08-05T03:16:59.505Z,3.67
2022-08-05T03:19:34.488Z,3.10
2022-08-05T03:22:05.125Z,3.08
2022-08-05T03:24:47.220Z,3.15
2022-08-05T03:27:18.770Z,3.45
2022-08-05T03:30:08.718Z,3.33
2022-08-05T03:32:33.080Z,2.78
2022-08-05T03:35:00.732Z,3.10
2022-08-05T03:37:27.870Z,3.00
2022-08-05T03:40:01.647Z,4.00
2022-08-05T03:42:32.421Z,2.78
2022-08-05T03:45:01.747Z,3.45
2022-08-05T03:47:46.767Z,3.08
2022-08-05T03:50:16.072Z,3.20
2022-08-05T03:55:07.197Z,3.25
2022-08-05T03:56:12.202Z,3.58
2022-08-05T03:58:42.572Z,3.28
2022-08-05T04:01:13.460Z,3.10
2022-08-05T04:04:05.466Z,3.45
2022-08-05T04:06:29.827Z,3.47
2022-08-05T04:08:57.403Z,3.50
2022-08-05T04:11:25.217Z,3.70
2022-08-05T04:14:12.204Z,3.85
2022-08-05T04:16:45.611Z,3.25
2022-08-05T04:19:13.441Z,3.40
2022-08-05T04:22:08.178Z,3.80
2022-08-05T04:24:28.312Z,3.65
2022-08-05T04:26:58.139Z,3.50
2022-08-05T04:29:25.049Z,3.58
2022-08-05T04:31:54.113Z,3.80
2022-08-05T04:34:33.710Z,3.13
2022-08-05T04:37:03.181Z,3.47
2022-08-05T04:39:31.323Z,3.40
2022-08-05T04:41:59.234Z,2.85
2022-08-05T04:44:29.958Z,3.42
2022-08-05T04:47:09.698Z,3.10
2022-08-05T04:50:05.115Z,3.05
2022-08-05T04:52:27.467Z,3.03
2022-08-05T04:54:54.848Z,3.50
2022-08-05T04:57:28.759Z,3.75
2022-08-05T04:59:58.449Z,2.85
2022-08-05T05:02:41.997Z,3.72
2022-08-05T05:05:26.209Z,3.53
2022-08-05T05:08:00.847Z,3.22
2022-08-05T05:10:28.768Z,3.60
2022-08-05T05:12:56.348Z,3.88
2022-08-05T05:15:57.246Z,2.95
2022-08-05T05:18:31.441Z,2.88
2022-08-05T05:21:01.827Z,3.05
2022-08-05T05:24:02.111Z,2.88
2022-08-05T05:26:18.355Z,3.03
2022-08-05T05:28:45.438Z,2.75
2022-08-05T05:31:12.670Z,2.72
2022-08-05T05:33:58.766Z,2.40
2022-08-05T05:36:28.708Z,2.00
2022-08-05T05:38:57.385Z,2.70
2022-08-05T05:44:00.574Z,2.38
2022-08-05T05:46:27.730Z,2.97
2022-08-05T05:48:54.657Z,2.22
2022-08-05T05:51:25.834Z,2.60
2022-08-05T05:53:58.918Z,1.98
2022-08-05T05:56:33.578Z,2.33
2022-08-05T05:59:03.387Z,1.75
2022-08-05T06:01:37.129Z,1.90
2022-08-05T06:04:13.224Z,1.95
2022-08-05T06:06:46.635Z,2.13
2022-08-05T06:09:17.322Z,2.20
2022-08-05T06:12:00.990Z,1.90
2022-08-05T06:14:29.835Z,1.70
2022-08-05T06:16:56.830Z,2.38
2022-08-05T06:19:34.071Z,2.33
2022-08-05T06:22:06.938Z,2.25
2022-08-05T06:27:01.924Z,2.22
2022-08-05T06:29:49.629Z,2.05
2022-08-05T06:32:26.165Z,2.03
2022-08-05T06:34:57.834Z,1.98
2022-08-05T06:37:52.291Z,2.03
2022-08-05T06:40:18.071Z,2.13
2022-08-05T06:42:51.575Z,2.33
2022-08-05T06:45:21.220Z,2.10
2022-08-05T06:48:13.803Z,2.00
2022-08-05T06:50:35.446Z,2.15
2022-08-05T06:53:11.640Z,2.33
2022-08-05T06:55:46.471Z,2.20
2022-08-05T06:58:20.260Z,3.53
2022-08-05T07:01:01.829Z,2.13
2022-08-05T07:03:32.776Z,2.30
2022-08-05T07:06:06.212Z,2.45
2022-08-05T07:08:47.278Z,2.22
2022-08-05T07:11:15.852Z,2.30
2022-08-05T07:14:02.050Z,2.47
2022-08-05T07:18:08.339Z,2.25
2022-08-05T07:22:28.771Z,2.47
2022-08-05T07:24:58.540Z,3.33
2022-08-05T07:27:27.271Z,2.20
2022-08-05T07:30:24.408Z,2.47
2022-08-05T07:32:55.173Z,2.38
2022-08-05T07:36:04.593Z,2.80
2022-08-05T07:38:12.337Z,3.10
2022-08-05T07:40:59.045Z,2.33
2022-08-05T07:43:28.384Z,3.50
2022-08-05T07:45:57.082Z,2.80
2022-08-05T07:49:00.883Z,3.05
2022-08-05T07:51:23.644Z,2.25
2022-08-05T07:53:58.457Z,3.40
2022-08-05T07:57:00.032Z,2.85
2022-08-05T07:59:15.571Z,2.70
2022-08-05T08:01:52.252Z,2.78
2022-08-05T08:04:37.224Z,2.78
2022-08-05T08:07:07.157Z,2.78
2022-08-05T08:09:34.861Z,2.92
2022-08-05T08:12:09.711Z,3.05
2022-08-05T08:14:42.270Z,1.88
2022-08-05T08:17:16.198Z,2.95
2022-08-05T08:20:21.420Z,2.55
2022-08-05T08:22:32.334Z,2.63
2022-08-05T08:25:03.182Z,2.47
2022-08-05T08:27:35.809Z,2.38
2022-08-05T08:30:20.217Z,2.20
2022-08-05T08:32:56.918Z,2.75
2022-08-05T08:35:26.566Z,2.83
2022-08-05T08:37:56.368Z,2.90
2022-08-05T08:40:23.869Z,2.40
2022-08-05T08:42:52.997Z,2.40
2022-08-05T08:45:26.710Z,2.13
2022-08-05T08:48:12.922Z,2.00
2022-08-05T08:51:22.115Z,2.45
2022-08-05T08:53:37.351Z,2.17
2022-08-05T08:56:06.183Z,2.55
2022-08-05T08:58:43.927Z,2.67
2022-08-05T09:01:17.944Z,2.10
2022-08-05T09:03:57.545Z,2.70
2022-08-05T09:06:30.715Z,2.38
2022-08-05T09:09:01.855Z,2.38
2022-08-05T09:11:50.872Z,2.33
2022-08-05T09:14:58.880Z,2.00
2022-08-05T09:17:40.924Z,2.17
2022-08-05T09:20:02.598Z,2.22
2022-08-05T09:23:19.666Z,1.63
2022-08-05T09:26:02.754Z,1.70
2022-08-05T09:28:34.729Z,2.00
2022-08-05T09:31:44.023Z,1.88
2022-08-05T09:34:09.770Z,1.73
2022-08-05T09:36:56.221Z,2.03
2022-08-05T09:39:45.215Z,1.63
2022-08-05T09:42:23.960Z,2.03
2022-08-05T09:44:57.391Z,1.65
2022-08-05T09:47:55.841Z,1.80
2022-08-05T09:50:38.783Z,2.58
2022-08-05T09:53:17.103Z,1.50
2022-08-05T09:56:04.479Z,1.60
2022-08-05T09:58:32.071Z,1.67
2022-08-05T10:01:13.568Z,1.60
2022-08-05T10:04:00.267Z,1.88
2022-08-05T10:06:28.269Z,1.63
2022-08-05T10:08:56.801Z,1.30
2022-08-05T10:11:23.674Z,1.15
2022-08-05T10:13:58.224Z,1.27
2022-08-05T10:16:37.890Z,1.42
2022-08-05T10:19:10.079Z,1.40
2022-08-05T10:21:40.204Z,1.17
2022-08-05T10:24:13.623Z,1.42
2022-08-05T10:26:51.551Z,1.13
2022-08-05T10:30:05.863Z,1.27
2022-08-05T10:32:53.997Z,1.10
2022-08-05T10:35:00.839Z,1.25
2022-08-05T10:37:37.120Z,1.20
2022-08-05T10:40:17.527Z,1.00
2022-08-05T10:42:50.756Z,1.65
2022-08-05T10:45:30.654Z,1.35
2022-08-05T10:48:31.877Z,2.03
2022-08-05T10:51:04.005Z,1.27
2022-08-05T10:53:42.569Z,1.00
2022-08-05T10:56:25.722Z,1.33
2022-08-05T10:59:06.914Z,1.15
2022-08-05T11:01:54.610Z,1.13
2022-08-05T11:04:30.689Z,1.30
2022-08-05T11:06:58.118Z,1.20
2022-08-05T11:09:39.326Z,1.25
2022-08-05T11:12:37.440Z,1.17
2022-08-05T11:15:20.202Z,1.30
2022-08-05T11:17:59.923Z,1.20
2022-08-05T11:20:44.215Z,1.05
2022-08-05T11:23:33.358Z,1.02
2022-08-05T11:26:28.076Z,1.45
2022-08-05T11:29:06.665Z,1.98
2022-08-05T11:31:58.825Z,1.40
2022-08-05T11:34:38.987Z,1.20
2022-08-05T11:38:37.005Z,1.42
2022-08-05T11:39:55.350Z,1.02
2022-08-05T11:45:05.568Z,1.45
2022-08-05T11:47:49.668Z,0.90
2022-08-05T11:50:18.083Z,1.42
2022-08-05T11:52:46.046Z,1.70
2022-08-05T11:55:15.767Z,1.45
2022-08-05T11:58:10.649Z,1.00
2022-08-05T12:00:38.392Z,1.60
2022-08-05T12:03:23.825Z,1.08
2022-08-05T12:06:05.779Z,0.98
2022-08-05T12:09:09.510Z,1.23
2022-08-05T12:11:47.415Z,1.13
2022-08-05T12:14:14.402Z,1.00
2022-08-05T12:16:47.248Z,1.38
2022-08-05T12:20:25.655Z,1.05
2022-08-05T12:22:09.416Z,1.55
2022-08-05T12:24:40.736Z,1.30
2022-08-05T12:27:25.373Z,1.47
2022-08-05T12:30:04.668Z,1.10
2022-08-05T12:32:36.183Z,1.10
2022-08-05T12:35:07.729Z,1.45
2022-08-05T12:37:35.733Z,1.25
2022-08-05T12:40:10.898Z,1.40
2022-08-05T12:42:39.176Z,1.33
2022-08-05T12:45:08.896Z,1.70
2022-08-05T12:47:37.887Z,1.23
2022-08-05T12:50:15.973Z,1.30
2022-08-05T12:52:53.597Z,1.40
2022-08-05T12:55:23.246Z,1.50
2022-08-05T12:58:52.570Z,1.27
2022-08-05T13:02:01.085Z,1.30
2022-08-05T13:03:32.301Z,1.60
2022-08-05T13:05:59.899Z,1.83
2022-08-05T13:08:32.116Z,1.48
2022-08-05T13:11:01.174Z,1.45
2022-08-05T13:14:05.789Z,1.65
2022-08-05T13:16:17.038Z,1.67
2022-08-05T13:18:59.538Z,1.38
2022-08-05T13:21:28.135Z,1.20
2022-08-05T13:24:06.079Z,1.50
2022-08-05T13:26:35.898Z,1.25
2022-08-05T13:29:03.138Z,1.58
2022-08-05T13:32:03.064Z,1.10
2022-08-05T13:34:24.420Z,1.38
2022-08-05T13:36:54.033Z,1.88
2022-08-05T13:40:13.936Z,1.35
2022-08-05T13:42:14.075Z,1.52
2022-08-05T13:44:46.377Z,1.25
2022-08-05T13:47:35.887Z,1.60
2022-08-05T13:50:04.658Z,1.60
2022-08-05T13:52:35.304Z,1.50
2022-08-05T13:55:03.044Z,1.70
2022-08-05T13:57:49.050Z,1.20
2022-08-05T14:00:26.778Z,1.40
2022-08-05T14:02:57.877Z,1.50
2022-08-05T14:05:48.473Z,1.52
2022-08-05T14:08:21.137Z,1.52
2022-08-05T14:10:59.650Z,1.40
2022-08-05T14:13:30.272Z,1.50
2022-08-05T14:16:05.218Z,1.67
2022-08-05T14:18:36.191Z,1.40
2022-08-05T14:22:07.117Z,1.33
2022-08-05T14:23:51.703Z,1.30
2022-08-05T14:26:35.818Z,1.00
2022-08-05T14:29:16.165Z,1.45
2022-08-05T14:31:54.445Z,1.50
2022-08-05T14:34:35.419Z,1.50
2022-08-05T14:37:03.742Z,1.20
2022-08-05T14:39:31.810Z,1.45
2022-08-05T14:42:21.330Z,1.45
2022-08-05T14:44:49.309Z,1.48
2022-08-05T14:47:16.242Z,1.33
2022-08-05T14:50:15.657Z,1.38
2022-08-05T14:52:52.982Z,1.60
2022-08-05T14:55:20.703Z,1.58
2022-08-05T14:57:56.359Z,1.70
2022-08-05T15:00:27.854Z,1.52
2022-08-05T15:02:55.196Z,1.40
2022-08-05T15:05:22.186Z,1.50
2022-08-05T15:08:05.583Z,1.58
2022-08-05T15:10:41.428Z,1.25
2022-08-05T15:13:09.908Z,1.70
2022-08-05T15:15:55.762Z,1.30
2022-08-05T15:18:23.632Z,1.40
2022-08-05T15:20:50.963Z,1.23
2022-08-05T15:23:17.981Z,1.38
2022-08-05T15:25:52.581Z,1.42
2022-08-05T15:28:27.235Z,1.60
2022-08-05T15:30:54.890Z,1.40
2022-08-05T15:33:56.719Z,1.33
2022-08-05T15:36:17.707Z,1.33
2022-08-05T15:41:01.464Z,1.50
2022-08-05T15:41:55.617Z,1.70
2022-08-05T15:44:25.950Z,1.98
2022-08-05T15:46:55.646Z,1.55
2022-08-05T15:49:41.872Z,1.85
2022-08-05T15:52:16.191Z,1.42
2022-08-05T15:54:43.916Z,1.80
2022-08-05T15:57:11.052Z,1.73
2022-08-05T15:59:39.739Z,2.15
2022-08-05T16:02:09.499Z,1.50
2022-08-05T16:04:41.927Z,1.60
2022-08-05T16:07:10.568Z,1.65
2022-08-05T16:09:41.513Z,1.38
2022-08-05T16:12:09.008Z,1.60
2022-08-05T16:14:36.096Z,1.75
2022-08-05T16:17:04.493Z,1.48
2022-08-05T16:20:03.113Z,1.75
2022-08-05T16:22:27.322Z,1.75
2022-08-05T16:24:54.702Z,1.55
2022-08-05T16:27:32.254Z,1.48
2022-08-05T16:30:13.339Z,1.60
2022-08-05T16:32:50.349Z,1.70
2022-08-05T16:35:20.166Z,1.17
2022-08-05T16:38:15.337Z,1.92
2022-08-05T16:40:42.913Z,1.73
2022-08-05T16:43:19.346Z,1.52
2022-08-05T16:46:07.556Z,2.28
2022-08-05T16:48:35.564Z,1.80
2022-08-05T16:51:09.437Z,1.80
2022-08-05T16:54:03.990Z,1.60
2022-08-05T16:58:55.246Z,1.73
2022-08-05T17:01:22.261Z,1.95
2022-08-05T17:03:51.934Z,1.70
2022-08-05T17:06:19.215Z,1.70
2022-08-05T17:08:54.465Z,1.80
2022-08-05T17:11:23.799Z,2.10
2022-08-05T17:14:00.671Z,1.95
2022-08-05T17:16:37.775Z,1.98
2022-08-05T17:19:07.330Z,2.15
2022-08-05T17:21:37.004Z,1.77
2022-08-05T17:24:18.659Z,1.58
2022-08-05T17:26:56.926Z,1.98
2022-08-05T17:29:33.136Z,2.08
2022-08-05T17:32:06.784Z,2.13
2022-08-05T17:34:35.421Z,1.80
2022-08-05T17:37:02.504Z,1.83
2022-08-05T17:39:34.270Z,2.10
2022-08-05T17:42:28.495Z,3.03
2022-08-05T17:44:51.637Z,1.75
2022-08-05T17:47:22.961Z,2.20
2022-08-05T17:49:59.520Z,2.00
2022-08-05T17:52:32.673Z,2.30
2022-08-05T17:55:01.152Z,2.33
2022-08-05T17:57:30.115Z,2.00
2022-08-05T18:00:04.907Z,2.22
2022-08-05T18:02:36.300Z,2.30
2022-08-05T18:05:07.592Z,2.10
2022-08-05T18:07:41.339Z,1.77
2022-08-05T18:10:11.852Z,2.35
2022-08-05T18:12:47.758Z,3.25
2022-08-05T18:15:14.759Z,2.03
2022-08-05T18:18:01.259Z,2.40
2022-08-05T18:20:29.382Z,2.47
2022-08-05T18:23:08.725Z,2.28
2022-08-05T18:25:39.106Z,2.10
2022-08-05T18:28:07.440Z,2.70
2022-08-05T18:30:39.083Z,3.40
2022-08-05T18:33:08.581Z,2.65
2022-08-05T18:36:01.031Z,2.08
2022-08-05T18:38:28.591Z,1.92
2022-08-05T18:41:53.813Z,2.83
2022-08-05T18:43:42.681Z,2.50
2022-08-05T18:46:10.258Z,3.00
2022-08-05T18:48:41.772Z,3.25
2022-08-05T18:52:04.499Z,2.67
2022-08-05T18:54:14.728Z,2.60
2022-08-05T18:56:51.302Z,2.05
2022-08-05T18:59:44.036Z,3.10
2022-08-05T19:02:11.409Z,3.33
2022-08-05T19:05:01.749Z,2.80
2022-08-05T19:07:45.636Z,2.97
2022-08-05T19:10:14.384Z,2.90
2022-08-05T19:12:41.661Z,2.60
2022-08-05T19:15:25.264Z,3.63
2022-08-05T19:17:59.814Z,2.28
2022-08-05T19:20:36.935Z,2.65
2022-08-05T19:23:08.005Z,2.58
2022-08-05T19:28:10.722Z,2.53
2022-08-05T19:30:37.539Z,2.70
2022-08-05T19:33:05.621Z,3.05
2022-08-05T19:35:56.120Z,2.28
2022-08-05T19:38:26.366Z,2.00
2022-08-05T19:40:53.519Z,2.10
2022-08-05T19:44:04.515Z,1.70
2022-08-05T19:46:16.706Z,1.40
2022-08-05T19:48:54.213Z,1.58
2022-08-05T19:52:04.983Z,1.70
2022-08-05T19:54:21.832Z,1.70
2022-08-05T19:56:54.593Z,1.35
2022-08-05T19:59:55.476Z,2.00
2022-08-05T20:02:08.607Z,1.23
2022-08-05T20:04:35.577Z,1.83
2022-08-05T20:07:03.353Z,1.40
2022-08-05T20:09:53.929Z,1.65
2022-08-05T20:12:23.491Z,1.35
2022-08-05T20:14:52.326Z,1.70
2022-08-05T20:17:23.504Z,1.33
2022-08-05T20:22:24.990Z,1.42
2022-08-05T20:24:54.868Z,1.33
2022-08-05T20:27:26.869Z,1.48
2022-08-05T20:29:57.620Z,1.67
2022-08-05T20:32:26.977Z,1.55
2022-08-05T20:34:54.502Z,1.42
2022-08-05T20:38:04.442Z,1.60
2022-08-05T20:40:09.414Z,1.67
2022-08-05T20:42:37.514Z,2.08
2022-08-05T20:45:05.800Z,2.60
2022-08-05T20:47:33.320Z,3.00
2022-08-05T20:52:28.252Z,2.10
2022-08-05T20:55:54.321Z,2.50
2022-08-05T20:57:44.381Z,2.80
2022-08-05T21:00:41.248Z,2.33
2022-08-05T21:03:06.191Z,2.40
2022-08-05T21:05:47.727Z,2.42
2022-08-05T21:08:32.882Z,2.80
2022-08-05T21:11:15.145Z,2.33
2022-08-05T21:13:59.898Z,2.50
2022-08-05T21:16:29.764Z,2.65
2022-08-05T21:19:01.438Z,3.00
2022-08-05T21:21:44.533Z,2.15
2022-08-05T21:24:19.301Z,2.70
2022-08-05T21:26:53.650Z,2.30
2022-08-05T21:29:26.467Z,2.25
2022-08-05T21:31:53.713Z,2.20
2022-08-05T21:34:21.037Z,2.55
2022-08-05T21:36:49.315Z,2.13
2022-08-05T21:39:16.982Z,2.67
2022-08-05T21:42:01.887Z,1.73
2022-08-05T21:44:30.216Z,2.38
2022-08-05T21:46:58.519Z,1.90
2022-08-05T21:49:48.301Z,2.38
2022-08-05T21:52:22.580Z,2.05
2022-08-05T21:54:55.710Z,2.47
2022-08-05T21:57:31.501Z,2.33
2022-08-05T22:00:11.400Z,3.10
2022-08-05T22:02:38.870Z,2.78
2022-08-05T22:05:06.165Z,2.80
2022-08-05T22:07:39.801Z,3.00
2022-08-05T22:10:26.878Z,3.65
2022-08-05T22:12:59.137Z,2.92
2022-08-05T22:15:56.438Z,3.03
2022-08-05T22:18:25.568Z,2.97
2022-08-05T22:20:53.033Z,3.17
2022-08-05T22:24:01.946Z,3.25
2022-08-05T22:26:49.836Z,4.13
2022-08-05T22:31:45.819Z,4.05
2022-08-05T22:34:28.468Z,4.32
2022-08-05T22:36:56.874Z,4.00
2022-08-05T22:39:30.990Z,3.83
2022-08-05T22:42:12.420Z,3.90
2022-08-05T22:44:41.214Z,3.75
2022-08-05T22:47:29.365Z,4.32
2022-08-05T22:50:20.329Z,3.78
2022-08-05T22:52:45.192Z,3.67
2022-08-05T22:55:19.242Z,4.05
2022-08-05T22:57:47.320Z,3.67
2022-08-05T23:00:17.853Z,3.67
2022-08-05T23:02:48.619Z,2.70
2022-08-05T23:05:17.280Z,3.10
2022-08-05T23:07:48.863Z,3.38
2022-08-05T23:10:19.672Z,3.05
2022-08-05T23:12:51.536Z,3.10
2022-08-05T23:15:22.441Z,3.30
2022-08-05T23:18:01.757Z,3.58
2022-08-05T23:20:31.538Z,3.53
2022-08-05T23:22:59.185Z,3.35
2022-08-05T23:25:51.635Z,3.05
2022-08-05T23:28:15.656Z,3.08
2022-08-05T23:30:53.767Z,3.45
2022-08-05T23:33:25.889Z,3.15
2022-08-05T23:36:10.427Z,2.85
2022-08-05T23:38:37.798Z,2.85
2022-08-05T23:41:04.659Z,2.50
2022-08-05T23:43:37.363Z,2.88
2022-08-05T23:46:20.958Z,3.72
2022-08-05T23:49:00.840Z,2.70
2022-08-05T23:51:53.437Z,3.60
2022-08-05T23:54:25.607Z,3.58
2022-08-05T23:59:20.356Z,3.90
